Time;durP1;ratioP1;P1;durP2;ratioP2;P2;SDS_P1;SDS_P2;PMS_P1;PMS_P2;Temp;Humidity;BMP_temperature;BMP_pressure;BME280_temperature;BME280_humidity;BME280_pressure;Samples;Min_cycle;Max_cycle;Signal;HPM_P1;HPM_P2
2020/12/28 04:10:11;;;;;;;30.00;17.27;;;;;;;3.94;72.33;98543.25;5273067;26;20096;31
2020/12/28 04:12:42;;;;;;;29.48;17.33;;;;;;;3.47;73.84;98547.09;5276754;27;20057;-89
2020/12/28 04:15:08;;;;;;;34.25;17.25;;;;;;;3.90;72.32;98536.34;5275930;27;20098;-90
2020/12/28 04:17:38;;;;;;;32.42;19.73;;;;;;;3.79;72.24;98536.41;5275917;27;20120;-90
2020/12/28 04:20:04;;;;;;;30.98;18.08;;;;;;;3.79;72.68;98539.00;5295610;27;20072;-89
2020/12/28 04:22:30;;;;;;;28.62;17.55;;;;;;;3.15;74.52;98536.91;5295605;27;20083;-90
2020/12/28 04:24:57;;;;;;;33.22;17.25;;;;;;;3.13;74.09;98520.47;5295516;27;20072;-91
2020/12/28 05:39:01;;;;;;;28.30;16.60;;;;;;;2.22;78.16;98551.06;5285306;26;20080;-91
2020/12/28 05:41:28;;;;;;;31.15;18.12;;;;;;;1.73;79.37;98551.97;5275513;27;20440;-91
2020/12/28 05:43:54;;;;;;;33.03;19.27;;;;;;;1.87;78.69;98554.56;5295105;27;20076;-90
2020/12/28 05:46:22;;;;;;;34.72;18.33;;;;;;;2.01;78.53;98564.94;5275438;27;20373;-90
2020/12/28 05:48:54;;;;;;;29.77;18.08;;;;;;;1.89;78.91;98558.03;5295149;27;20072;-91
2020/12/28 05:51:20;;;;;;;32.10;19.15;;;;;;;1.71;79.78;98576.16;5294931;27;20088;-90
2020/12/28 05:53:48;;;;;;;30.37;18.40;;;;;;;2.07;78.37;98572.69;5295042;27;20425;-90
2020/12/28 05:56:14;;;;;;;30.15;17.33;;;;;;;1.97;78.42;98563.19;5295145;27;20057;-91
2020/12/28 05:58:45;;;;;;;33.10;18.67;;;;;;;1.87;78.84;98558.88;5295119;27;20403;-91
2020/12/28 07:22:21;;;;;;;31.92;17.67;;;;;;;3.10;73.29;98546.44;5270563;26;20066;-90
2020/12/28 07:24:56;;;;;;;27.87;18.17;;;;;;;3.35;72.36;98544.53;5255862;27;20077;-89
2020/12/28 07:27:23;;;;;;;29.87;17.70;;;;;;;3.44;72.06;98539.28;5254092;27;20080;-89
2020/12/28 07:29:51;;;;;;;30.10;17.20;;;;;;;3.17;72.72;98537.72;5273930;27;20058;-89
2020/12/28 07:51:18;;;;;;;;;;;;;;;;;;;;;
2020/12/28 07:54:39;;;;;;;30.17;17.33;;;;;;;2.76;74.36;98538.81;5240548;27;20081;-89
2020/12/28 07:57:08;;;;;;;29.85;18.20;;;;;;;2.93;73.86;98542.19;5259472;27;20116;-88
2020/12/28 07:59:55;;;;;;;28.60;18.35;;;;;;;3.09;73.57;98542.97;5254366;27;20448;-88
2020/12/28 08:51:24;;;;;;;30.48;18.08;;;;;;;4.55;67.55;98536.56;5364715;26;20064;-88
2020/12/28 08:54:11;;;;;;;30.73;18.92;;;;;;;4.83;67.00;98546.66;5364554;26;20068;-88
2020/12/28 08:56:41;;;;;;;39.42;19.77;;;;;;;4.80;67.05;98541.47;5364808;26;20048;-89
2020/12/28 08:59:07;;;;;;;31.83;18.00;;;;;;;4.74;67.14;98538.06;5344524;26;20111;-87
2020/12/28 09:51:03;;;;;;;31.62;18.17;;;;;;;4.57;69.66;98477.59;5274117;27;20139;-87
2020/12/28 09:53:30;;;;;;;28.70;17.35;;;;;;;4.70;68.53;98478.28;5256373;27;20080;-86
2020/12/28 09:55:57;;;;;;;29.40;18.08;;;;;;;4.99;67.77;98478.75;5278108;27;20053;-85
2020/12/28 09:58:24;;;;;;;30.98;18.25;;;;;;;4.91;67.31;98475.41;5279437;27;20056;-85
2020/12/28 10:23:14;;;;;;;28.98;16.77;;;;;;;4.99;67.34;98452.72;5259734;27;20073;-87
2020/12/28 10:25:45;;;;;;;29.00;18.75;;;;;;;4.91;67.59;98464.13;5278338;27;20073;-87
2020/12/28 10:28:12;;;;;;;31.67;18.17;;;;;;;4.92;67.90;98448.50;5276515;27;20072;-87
2020/12/28 10:30:40;;;;;;;30.15;15.93;;;;;;;5.12;68.02;98440.41;5258803;27;20382;-88
2020/12/28 10:33:11;;;;;;;26.73;17.37;;;;;;;5.27;67.04;98454.94;5275776;27;20026;-88
2020/12/28 10:35:39;;;;;;;38.50;24.77;;;;;;;4.84;68.12;98449.47;5256123;27;20066;-88
2020/12/28 10:38:07;;;;;;;39.30;24.90;;;;;;;5.22;67.68;98444.56;5274620;27;20136;-89
2020/12/28 10:40:39;;;;;;;37.88;21.80;;;;;;;4.74;70.17;98427.94;5274348;27;20045;-89
2020/12/28 10:43:08;;;;;;;35.22;22.35;;;;;;;4.22;71.87;98426.00;5276127;27;20055;-89
2020/12/28 10:45:34;;;;;;;36.45;24.05;;;;;;;3.93;73.35;98436.72;5275531;27;20537;-88
2020/12/28 10:48:00;;;;;;;34.08;19.85;;;;;;;4.33;71.36;98427.59;5275971;27;20061;-87
2020/12/28 10:50:27;;;;;;;35.30;20.20;;;;;;;3.98;72.77;98429.75;5276247;27;20053;-88
2020/12/28 10:52:53;;;;;;;39.53;22.95;;;;;;;4.11;72.13;98415.72;5276186;27;20057;-89
2020/12/28 10:55:22;;;;;;;38.30;25.35;;;;;;;4.22;72.83;98405.22;5257564;27;20058;-89
2020/12/28 10:57:48;;;;;;;36.47;20.08;;;;;;;4.42;71.31;98404.97;5258462;27;20077;-88
2020/12/28 11:00:15;;;;;;;40.00;26.85;;;;;;;4.77;69.95;98384.53;5276869;27;20049;-88
2020/12/28 11:02:42;;;;;;;36.40;21.05;;;;;;;4.39;71.74;98392.84;5258152;27;20104;-88
2020/12/28 11:33:58;;;;;;;34.83;17.55;;;;;;;5.33;71.32;98328.97;5367445;26;20065;-88
2020/12/28 11:36:25;;;;;;;26.17;16.17;;;;;;;5.44;68.56;98324.41;5350857;26;20741;-88
2020/12/28 11:39:14;;;;;;;26.00;14.98;;;;;;;5.79;68.14;98315.06;5356269;26;20074;-88
2020/12/28 11:41:41;;;;;;;24.70;15.80;;;;;;;6.24;66.36;98323.75;5373657;26;20775;-88
2020/12/28 11:44:10;;;;;;;27.02;16.27;;;;;;;6.03;66.56;98327.66;5355211;26;20085;-87
2020/12/28 11:46:38;;;;;;;28.75;16.95;;;;;;;6.32;65.60;98310.50;5376019;26;20059;-88
2020/12/28 11:49:05;;;;;;;26.92;16.33;;;;;;;6.90;64.79;98317.00;5376289;26;20060;-87
2020/12/28 11:51:31;;;;;;;25.75;15.98;;;;;;;6.57;64.71;98311.69;5355915;26;20047;-87
2020/12/28 11:53:58;;;;;;;24.42;15.00;;;;;;;6.70;65.31;98298.34;5375392;26;20072;-88
2020/12/28 11:56:24;;;;;;;32.03;18.58;;;;;;;6.53;63.68;98290.91;5356284;26;20063;-87
2020/12/28 11:58:51;;;;;;;33.42;19.98;;;;;;;6.42;64.96;98277.28;5376389;26;20028;-87
2020/12/28 12:01:19;;;;;;;31.00;18.80;;;;;;;6.69;64.46;98273.16;5375456;26;20479;-87
2020/12/28 12:03:49;;;;;;;31.42;18.65;;;;;;;6.44;64.47;98257.22;5355924;26;20078;-87
2020/12/28 12:06:18;;;;;;;32.38;17.60;;;;;;;6.38;64.84;98260.81;5374264;26;20052;-87
2020/12/28 12:11:35;;;;;;;25.90;15.93;;;;;;;6.53;64.99;98239.63;5374713;26;20048;-87
2020/12/28 12:14:02;;;;;;;23.92;14.38;;;;;;;6.53;65.19;98236.12;5355674;26;20602;-87
2020/12/28 12:16:29;;;;;;;21.62;12.85;;;;;;;6.17;65.06;98222.19;5375598;26;20056;-86
2020/12/28 12:18:56;;;;;;;22.60;12.77;;;;;;;6.12;65.26;98224.94;5374048;26;20091;-87
2020/12/28 12:21:25;;;;;;;18.85;12.82;;;;;;;6.33;64.72;98228.78;5375017;26;20047;-87
2020/12/28 12:23:53;;;;;;;20.00;13.18;;;;;;;6.59;64.39;98220.34;5375444;26;20020;-87
2020/12/28 12:26:23;;;;;;;18.67;12.05;;;;;;;6.55;64.76;98218.69;5375032;26;20036;-87
2020/12/28 12:28:52;;;;;;;19.98;13.32;;;;;;;6.89;64.68;98210.03;5375210;26;20060;-86
2020/12/28 12:31:19;;;;;;;20.25;13.00;;;;;;;7.30;63.33;98205.47;5355229;26;20413;-87
2020/12/28 12:33:47;;;;;;;19.35;12.27;;;;;;;7.43;62.31;98199.81;5353470;26;20079;-87
2020/12/28 12:36:14;;;;;;;24.50;15.55;;;;;;;7.60;62.38;98193.28;5353799;26;20618;-87
2020/12/28 12:38:41;;;;;;;20.23;12.55;;;;;;;7.81;61.29;98192.63;5374383;26;20077;-86
2020/12/28 12:41:13;;;;;;;22.40;14.68;;;;;;;7.62;61.08;98188.88;5355054;26;20040;-87
2020/12/28 12:43:40;;;;;;;20.00;11.73;;;;;;;8.08;61.07;98184.84;5375023;26;20020;-88
2020/12/28 12:46:10;;;;;;;18.37;11.00;;;;;;;8.51;59.42;98183.53;5355278;26;20053;-87
2020/12/28 12:48:41;;;;;;;19.25;10.93;;;;;;;7.69;60.90;98182.53;5374398;26;20060;-86
2020/12/28 12:51:08;;;;;;;17.23;10.65;;;;;;;7.24;61.70;98170.75;5356504;26;20032;-86
2020/12/28 12:53:35;;;;;;;20.77;13.25;;;;;;;7.60;60.97;98177.59;5356111;26;20055;-87
2020/12/28 12:56:06;;;;;;;22.30;12.55;;;;;;;6.95;63.45;98168.09;5375151;26;20024;-87
2020/12/28 12:58:33;;;;;;;20.23;13.00;;;;;;;7.69;61.09;98162.50;5375354;26;20082;-87
2020/12/28 13:01:00;;;;;;;19.70;11.48;;;;;;;7.97;60.83;98153.78;5356326;26;20060;-87
2020/12/28 13:03:26;;;;;;;18.50;10.57;;;;;;;7.99;60.14;98156.37;5376465;26;20107;-87
2020/12/28 13:05:55;;;;;;;17.75;11.07;;;;;;;7.61;60.56;98164.47;5376123;26;20060;-87
2020/12/28 13:08:21;;;;;;;17.20;11.48;;;;;;;7.79;61.04;98160.44;5375739;26;20060;-86
2020/12/28 13:10:48;;;;;;;18.90;10.68;;;;;;;7.48;61.57;98158.75;5376472;26;20094;-86
2020/12/28 13:13:16;;;;;;;17.45;9.90;;;;;;;7.48;61.83;98161.38;5355432;26;20044;-87
2020/12/28 13:15:43;;;;;;;16.70;10.90;;;;;;;7.32;61.87;98162.69;5354241;26;20056;-86
2020/12/28 13:18:09;;;;;;;16.00;9.43;;;;;;;7.42;61.44;98166.78;5327006;26;249663;-87
2020/12/28 13:20:36;;;;;;;16.10;9.85;;;;;;;7.14;61.85;98158.00;5374869;26;20692;-86
2020/12/28 13:23:02;;;;;;;17.98;10.10;;;;;;;6.79;62.85;98155.47;5374466;26;20058;-87
2020/12/28 13:25:30;;;;;;;17.15;10.13;;;;;;;6.80;63.89;98144.09;5374922;26;20052;-87
2020/12/28 13:27:57;;;;;;;16.77;10.45;;;;;;;6.67;63.91;98132.25;5353389;26;20059;-86
2020/12/28 13:30:23;;;;;;;19.77;10.73;;;;;;;6.71;64.33;98125.25;5353911;26;20145;-86
2020/12/28 13:32:50;;;;;;;17.35;11.05;;;;;;;6.34;65.84;98126.16;5374846;26;20168;-87
2020/12/28 13:35:17;;;;;;;20.75;10.63;;;;;;;6.14;67.02;98127.50;5373930;26;20025;-86
2020/12/28 13:37:44;;;;;;;14.77;9.80;;;;;;;5.81;68.40;98120.47;5352277;26;20718;-87
2020/12/28 13:40:10;;;;;;;19.10;11.35;;;;;;;6.13;67.15;98112.75;5372665;26;20113;-87
2020/12/28 13:42:38;;;;;;;19.02;10.68;;;;;;;5.72;68.52;98092.00;5372533;26;20061;-87
2020/12/28 13:45:04;;;;;;;18.37;10.63;;;;;;;6.02;67.75;98106.94;5371738;26;20034;-87
2020/12/28 13:47:32;;;;;;;17.45;10.55;;;;;;;5.84;68.04;98092.56;5372329;26;20024;-87
2020/12/28 13:49:59;;;;;;;20.30;11.15;;;;;;;5.63;68.82;98083.50;5371685;26;20614;-87
2020/12/28 13:52:25;;;;;;;18.30;11.65;;;;;;;6.00;67.13;98094.84;5370016;26;20060;-88
2020/12/28 13:54:52;;;;;;;17.55;10.80;;;;;;;6.14;67.01;98109.25;5371006;26;20052;-88
2020/12/28 13:57:18;;;;;;;20.40;11.55;;;;;;;5.63;69.06;98099.12;5350822;26;20131;-87
2020/12/28 13:59:44;;;;;;;22.67;11.32;;;;;;;5.46;69.35;98102.13;5371357;26;20055;-87
2020/12/28 14:02:11;;;;;;;15.50;9.57;;;;;;;5.55;68.56;98084.56;5371490;26;20182;-87
2020/12/28 14:04:37;;;;;;;19.58;10.82;;;;;;;5.64;67.75;98087.81;5371764;26;20056;-87
2020/12/28 14:07:04;;;;;;;17.85;10.60;;;;;;;6.02;67.49;98090.47;5352941;26;20169;-87
2020/12/28 14:09:33;;;;;;;18.03;10.57;;;;;;;6.11;66.52;98096.28;5372651;26;20059;-87
2020/12/28 14:11:59;;;;;;;20.08;12.25;;;;;;;6.11;67.22;98095.44;5372474;26;20074;-86
2020/12/28 14:14:27;;;;;;;19.37;11.65;;;;;;;6.16;66.90;98077.09;5372443;26;20068;-87
2020/12/28 14:16:54;;;;;;;17.62;10.93;;;;;;;6.14;66.70;98080.56;5371046;26;20075;-87
2020/12/28 14:19:21;;;;;;;20.85;11.82;;;;;;;6.20;66.42;98074.34;5371005;26;20056;-87
2020/12/28 14:21:47;;;;;;;19.02;12.10;;;;;;;6.31;66.64;98066.25;5371723;26;20365;-87
2020/12/28 14:24:14;;;;;;;20.08;10.23;;;;;;;6.62;65.38;98078.47;5352426;26;20039;-87
2020/12/28 14:26:40;;;;;;;19.10;10.75;;;;;;;6.50;66.24;98061.41;5351067;26;20117;-87
2020/12/28 14:29:07;;;;;;;21.60;11.73;;;;;;;6.59;66.22;98067.25;5369842;26;20075;-87
2020/12/28 14:31:33;;;;;;;20.98;12.02;;;;;;;5.96;68.40;98061.94;5369860;26;20063;-87
2020/12/28 14:34:00;;;;;;;19.20;10.88;;;;;;;6.67;65.82;98056.59;5369154;26;20138;-87
2020/12/28 14:36:27;;;;;;;19.58;11.90;;;;;;;6.71;65.85;98050.41;5349329;26;20781;-87
2020/12/28 14:38:53;;;;;;;18.83;11.32;;;;;;;6.21;67.54;98041.34;5349403;26;20063;-87
2020/12/28 14:41:20;;;;;;;21.42;12.23;;;;;;;6.43;66.49;98050.28;5370002;26;20043;-87
2020/12/28 14:43:49;;;;;;;17.70;10.00;;;;;;;6.40;66.78;98050.37;5350197;26;20030;-87
2020/12/28 14:46:21;;;;;;;15.27;9.07;;;;;;;6.43;66.40;98041.59;5369387;26;20371;-87
2020/12/28 14:48:49;;;;;;;18.02;11.65;;;;;;;6.28;66.80;98040.25;5368687;26;20075;-87
2020/12/28 14:51:16;;;;;;;16.55;9.77;;;;;;;6.55;66.77;98044.72;5369434;26;20056;-87
2020/12/28 14:53:44;;;;;;;18.83;10.55;;;;;;;6.50;66.26;98044.03;5348749;26;20067;-87
2020/12/28 14:56:19;;;;;;;22.70;10.82;;;;;;;6.88;64.92;98029.03;5349531;26;20075;-88
2020/12/28 14:58:46;;;;;;;19.70;10.60;;;;;;;6.78;65.67;98030.19;5370220;26;20029;-87
2020/12/28 15:01:21;;;;;;;17.67;9.88;;;;;;;7.00;64.75;98033.03;5370809;26;20070;-87
2020/12/28 15:03:49;;;;;;;17.95;10.20;;;;;;;6.91;65.08;98030.69;5370458;26;20032;-87
2020/12/28 15:06:16;;;;;;;20.23;11.00;;;;;;;6.74;66.04;98026.84;5350706;26;20421;-87
2020/12/28 15:08:43;;;;;;;18.52;10.70;;;;;;;6.97;64.94;98014.84;5350311;26;20520;-88
2020/12/28 15:11:10;;;;;;;17.35;10.65;;;;;;;6.45;67.19;98016.34;5370972;26;20056;-87
2020/12/28 15:13:37;;;;;;;20.95;12.10;;;;;;;6.42;67.32;98006.84;5351544;26;20027;-87
2020/12/28 15:16:05;;;;;;;20.10;10.70;;;;;;;6.42;67.30;98003.41;5351063;26;20067;-88
2020/12/28 15:18:31;;;;;;;17.65;12.15;;;;;;;6.54;67.29;98001.28;5349950;26;20342;-87
2020/12/28 15:20:58;;;;;;;23.87;12.13;;;;;;;6.43;67.83;97986.84;5350310;26;20086;-88
2020/12/28 15:23:26;;;;;;;17.67;10.07;;;;;;;6.62;66.95;97987.16;5370822;26;20678;-86
2020/12/28 15:25:53;;;;;;;17.52;10.27;;;;;;;6.80;66.78;97986.66;5351150;26;20047;-86
2020/12/28 15:28:20;;;;;;;19.02;11.15;;;;;;;6.75;67.08;97981.56;5371121;26;20056;-87
2020/12/28 15:30:47;;;;;;;19.12;11.05;;;;;;;6.72;67.31;97996.44;5371998;26;20109;-87
2020/12/28 15:33:15;;;;;;;17.40;10.52;;;;;;;6.50;67.97;97997.06;5372915;26;20060;-87
2020/12/28 15:35:41;;;;;;;20.37;11.63;;;;;;;6.94;66.59;97971.44;5372148;26;20095;-88
2020/12/28 15:38:09;;;;;;;20.05;11.07;;;;;;;6.89;66.87;97972.47;5351812;26;20064;-87
2020/12/28 15:40:35;;;;;;;21.87;12.23;;;;;;;7.17;66.38;97960.28;5371670;26;20834;-87
2020/12/28 15:43:02;;;;;;;21.95;11.35;;;;;;;7.00;66.52;97971.25;5350380;26;20034;-87
2020/12/28 15:45:31;;;;;;;18.58;11.27;;;;;;;6.68;67.39;97966.13;5372224;26;20024;-87
2020/12/28 15:47:58;;;;;;;20.30;11.05;;;;;;;6.91;66.75;97955.88;5372183;26;20032;-87
2020/12/28 15:50:25;;;;;;;20.52;10.50;;;;;;;6.55;68.79;97949.97;5351321;26;20074;-88
2020/12/28 15:52:52;;;;;;;16.75;10.20;;;;;;;6.81;67.34;97944.84;5352845;26;20028;-88
2020/12/28 15:55:18;;;;;;;20.12;10.18;;;;;;;6.72;67.85;97950.31;5353126;26;20066;-88
2020/12/28 15:57:45;;;;;;;17.12;10.07;;;;;;;6.67;67.81;97939.16;5352553;26;20067;-87
2020/12/28 16:00:12;;;;;;;17.80;10.73;;;;;;;6.73;67.93;97945.97;5373169;26;20036;-87
2020/12/28 16:02:38;;;;;;;17.02;9.45;;;;;;;6.86;67.39;97949.94;5372886;26;20097;-87
2020/12/28 16:05:05;;;;;;;18.80;10.90;;;;;;;7.31;65.98;97928.50;5372007;26;20052;-88
2020/12/28 16:07:31;;;;;;;17.58;11.00;;;;;;;6.76;68.04;97922.38;5372861;26;20093;-87
2020/12/28 16:09:58;;;;;;;16.37;10.60;;;;;;;6.78;68.20;97937.09;5372321;26;20039;-88
2020/12/28 16:12:24;;;;;;;19.33;11.55;;;;;;;7.22;67.00;97915.75;5352172;26;20076;-87
2020/12/28 16:14:52;;;;;;;17.80;9.68;;;;;;;6.95;67.96;97907.88;5371693;26;20109;-87
2020/12/28 16:17:18;;;;;;;17.85;10.95;;;;;;;7.13;67.25;97913.44;5375279;26;20082;-89
2020/12/28 16:19:45;;;;;;;14.73;9.75;;;;;;;6.76;68.63;97906.72;5375084;26;20112;-88
2020/12/28 16:22:11;;;;;;;17.52;9.77;;;;;;;6.88;68.39;97913.31;5374287;26;20052;-87
2020/12/28 16:24:38;;;;;;;18.70;10.40;;;;;;;6.97;68.36;97902.59;5373281;26;20106;-88
2020/12/28 16:27:04;;;;;;;15.65;10.13;;;;;;;6.90;68.80;97901.94;5372033;26;20104;-87
2020/12/28 16:29:31;;;;;;;16.83;9.57;;;;;;;6.85;68.76;97898.59;5372370;26;20052;-87
2020/12/28 16:32:19;;;;;;;16.80;9.32;;;;;;;6.72;69.34;97900.75;5357289;26;21311;-88
2020/12/28 16:34:47;;;;;;;17.35;10.93;;;;;;;7.11;68.01;97894.34;5354189;26;20032;-87
2020/12/28 16:37:15;;;;;;;16.00;9.82;;;;;;;7.11;67.99;97894.34;5374335;26;20086;-88
2020/12/28 16:39:43;;;;;;;14.55;9.10;;;;;;;6.94;68.66;97887.91;5374383;26;20715;-88
2020/12/28 16:42:29;;;;;;;18.05;9.38;;;;;;;6.93;68.74;97880.09;5374050;26;20089;-88
2020/12/28 16:44:56;;;;;;;17.30;10.73;;;;;;;7.02;68.81;97875.44;5353448;26;20460;-87
2020/12/28 16:47:25;;;;;;;15.15;9.68;;;;;;;7.13;68.53;97866.44;5354141;26;20056;-88
2020/12/28 16:49:53;;;;;;;14.27;8.77;;;;;;;7.48;67.65;97868.72;5375308;26;20055;-88
2020/12/28 16:52:19;;;;;;;15.27;8.88;;;;;;;7.15;68.94;97869.84;5374116;26;20020;-88
2020/12/28 16:54:46;;;;;;;13.82;9.63;;;;;;;7.30;68.68;97877.19;5372749;26;20651;-87
2020/12/28 16:57:13;;;;;;;14.23;9.40;;;;;;;7.27;68.62;97865.06;5372174;26;20078;-88
2020/12/28 16:59:40;;;;;;;13.15;7.97;;;;;;;7.57;67.09;97845.81;5373042;26;20048;-89
2020/12/28 17:02:07;;;;;;;14.73;8.30;;;;;;;7.52;67.51;97840.72;5373612;26;20063;-88
2020/12/28 17:39:55;;;;;;;12.75;6.75;;;;;;;7.99;65.80;97808.59;5374111;26;20104;-89
2020/12/28 17:42:21;;;;;;;11.15;6.30;;;;;;;7.88;66.31;97795.91;5354847;26;20028;-88
2020/12/28 17:44:49;;;;;;;10.73;6.82;;;;;;;7.97;65.76;97791.22;5355424;26;20585;-88
2020/12/28 17:47:16;;;;;;;9.40;5.85;;;;;;;8.00;66.41;97790.25;5354862;26;20425;-88
2020/12/28 17:49:44;;;;;;;11.30;6.57;;;;;;;7.93;65.78;97794.81;5371935;26;20112;-87
2020/12/28 17:52:10;;;;;;;10.00;5.57;;;;;;;7.85;66.48;97788.16;5351912;26;20042;-87
2020/12/28 17:54:36;;;;;;;10.02;5.95;;;;;;;8.06;65.74;97787.41;5373695;26;20021;-88
2020/12/28 17:57:03;;;;;;;10.80;6.28;;;;;;;8.06;65.17;97803.09;5372255;26;20112;-88
2020/12/28 17:59:32;;;;;;;8.25;4.90;;;;;;;7.94;66.43;97785.22;5353744;26;20127;-88
2020/12/28 18:01:58;;;;;;;9.73;5.95;;;;;;;8.09;65.07;97789.91;5372308;26;20056;-87
2020/12/28 18:04:25;;;;;;;12.00;6.18;;;;;;;8.35;64.23;97786.31;5351661;26;20451;-88
2020/12/28 18:06:52;;;;;;;9.65;5.40;;;;;;;8.18;64.99;97783.47;5372322;26;20713;-87
2020/12/28 18:09:19;;;;;;;14.52;6.12;;;;;;;8.16;65.20;97769.59;5352846;26;20033;-88
2020/12/28 18:11:45;;;;;;;7.90;4.40;;;;;;;7.93;65.73;97776.53;5354718;26;20131;-88
2020/12/28 18:14:12;;;;;;;11.50;5.28;;;;;;;8.27;65.20;97777.03;5351337;26;20028;-87
2020/12/28 18:16:43;;;;;;;7.70;4.85;;;;;;;8.03;65.79;97768.34;5372612;26;20062;-87
2020/12/28 18:19:10;;;;;;;8.98;5.15;;;;;;;7.98;65.54;97778.97;5354091;26;20048;-87
2020/12/28 18:21:38;;;;;;;7.37;4.55;;;;;;;8.26;65.19;97770.94;5354757;26;20032;-88
2020/12/28 18:24:12;;;;;;;9.57;4.62;;;;;;;8.28;65.36;97756.03;5355624;26;20024;-88
2020/12/28 18:26:39;;;;;;;7.95;5.05;;;;;;;8.24;64.80;97749.22;5373795;26;20067;-88
2020/12/28 18:29:06;;;;;;;8.60;4.22;;;;;;;8.27;64.83;97762.19;5374175;26;20061;-87
2020/12/28 18:31:34;;;;;;;9.02;5.97;;;;;;;8.12;65.38;97757.56;5374239;26;20430;-87
2020/12/28 18:34:01;;;;;;;7.20;4.47;;;;;;;8.39;64.51;97756.50;5374464;26;20043;-87
2020/12/28 18:36:42;;;;;;;9.15;4.28;;;;;;;8.45;63.85;97741.50;5374691;26;20111;-88
2020/12/28 18:39:09;;;;;;;8.38;5.05;;;;;;;8.76;63.16;97741.94;5374704;26;20068;-87
2020/12/28 18:41:35;;;;;;;6.43;4.10;;;;;;;8.66;63.58;97732.78;5354968;26;20059;-87
2020/12/28 18:44:02;;;;;;;8.25;4.10;;;;;;;8.58;63.51;97724.38;5355292;26;20052;-88
2020/12/28 18:46:28;;;;;;;7.40;4.37;;;;;;;8.65;62.82;97728.47;5355472;26;20119;-87
2020/12/28 18:48:55;;;;;;;8.93;4.60;;;;;;;8.63;63.61;97720.66;5355821;26;20072;-87
2020/12/28 18:51:24;;;;;;;7.43;3.83;;;;;;;8.52;63.61;97711.53;5356363;26;20038;-87
2020/12/28 18:53:50;;;;;;;6.55;3.62;;;;;;;8.35;64.57;97717.41;5356871;26;20032;-88
2020/12/28 18:56:19;;;;;;;6.95;3.37;;;;;;;8.51;63.25;97722.94;5377572;26;20031;-88
2020/12/28 18:58:47;;;;;;;7.30;3.20;;;;;;;8.47;63.69;97721.31;5377819;26;20059;-88
2020/12/28 19:01:15;;;;;;;6.20;3.30;;;;;;;8.70;62.51;97721.25;5358417;26;20060;-88
2020/12/28 19:03:42;;;;;;;7.25;3.67;;;;;;;8.85;61.82;97715.41;5357628;26;20045;-88
2020/12/28 19:06:11;;;;;;;7.43;3.35;;;;;;;9.20;60.76;97726.12;5358295;26;20055;-88
2020/12/28 19:08:39;;;;;;;6.30;3.12;;;;;;;9.07;61.60;97709.25;5377813;26;20106;-87
2020/12/28 19:11:11;;;;;;;6.15;3.37;;;;;;;9.11;60.98;97710.81;5376470;26;20099;-88
2020/12/28 19:13:38;;;;;;;7.18;3.25;;;;;;;9.10;60.38;97696.88;5356782;26;20055;-87
2020/12/28 19:16:04;;;;;;;4.70;2.28;;;;;;;9.16;61.11;97684.44;5356838;26;20044;-87
2020/12/28 19:41:11;;;;;;;4.85;2.90;;;;;;;9.49;59.79;97645.41;5305539;26;20758;-87
2020/12/28 19:43:38;;;;;;;4.28;2.62;;;;;;;9.72;58.83;97637.31;5260440;27;20119;-86
2020/12/28 19:46:07;;;;;;;5.47;2.95;;;;;;;9.45;59.70;97638.59;5279693;27;20847;-88
2020/12/28 19:48:33;;;;;;;6.82;3.22;;;;;;;9.38;59.72;97645.03;5260664;27;20075;-88
2020/12/28 19:51:04;;;;;;;5.12;2.92;;;;;;;9.37;60.11;97630.22;5278935;27;20058;-86
2020/12/28 19:53:30;;;;;;;;;;;;;;;9.37;59.89;97628.47;5276603;27;20080;-87
2020/12/28 19:55:56;;;;;;;5.05;2.20;;;;;;;9.49;59.75;97622.66;5278442;27;19988;-87
2020/12/28 19:58:24;;;;;;;8.23;2.83;;;;;;;9.60;58.94;97619.56;5278123;27;20073;-86
2020/12/28 20:00:51;;;;;;;5.47;2.92;;;;;;;9.56;59.03;97620.63;5262313;27;20068;-87
2020/12/28 20:03:17;;;;;;;5.55;2.30;;;;;;;9.55;59.08;97625.00;5260070;27;20077;-87
2020/12/28 20:05:44;;;;;;;5.30;3.15;;;;;;;9.53;59.80;97595.41;5281630;27;20038;-87
2020/12/28 20:08:10;;;;;;;4.62;2.47;;;;;;;9.62;59.25;97601.09;5260037;27;20052;-88
2020/12/28 20:10:37;;;;;;;8.65;3.12;;;;;;;9.58;59.35;97586.47;5279614;27;20125;-87
2020/12/28 20:13:03;;;;;;;4.20;2.42;;;;;;;9.60;59.33;97582.84;5281669;26;20076;-86
2020/12/28 20:15:30;;;;;;;8.52;2.67;;;;;;;9.68;58.92;97591.22;5259601;27;20074;-87
2020/12/28 20:17:56;;;;;;;5.65;2.60;;;;;;;9.61;59.25;97575.84;5279200;27;20583;-88
2020/12/28 20:20:23;;;;;;;3.60;2.47;;;;;;;9.42;59.93;97568.84;5277882;27;20061;-87
2020/12/28 20:22:49;;;;;;;6.65;3.12;;;;;;;9.59;59.59;97556.69;5261016;27;20061;-86
2020/12/28 20:25:16;;;;;;;5.10;3.10;;;;;;;9.32;60.79;97568.41;5279530;27;20072;-87
2020/12/28 20:27:43;;;;;;;5.95;2.58;;;;;;;9.41;59.75;97563.66;5277602;27;20108;-87
2020/12/28 20:30:13;;;;;;;5.03;2.97;;;;;;;9.57;59.37;97558.56;5277984;27;20026;-87
2020/12/28 20:32:44;;;;;;;5.60;2.60;;;;;;;9.42;59.86;97553.09;5278208;26;20034;-86
2020/12/28 20:35:12;;;;;;;5.20;2.97;;;;;;;9.67;59.05;97537.06;5255299;27;20080;-87
2020/12/28 20:37:39;;;;;;;5.82;2.72;;;;;;;9.41;59.63;97524.34;5274656;27;20053;-87
2020/12/28 20:40:11;;;;;;;4.90;2.90;;;;;;;9.49;60.17;97524.84;5275400;27;20065;-86
2020/12/28 20:42:45;;;;;;;4.53;2.53;;;;;;;9.47;59.61;97516.19;5275495;27;20070;-87
2020/12/28 20:45:12;;;;;;;6.45;3.12;;;;;;;9.55;59.19;97543.72;5275288;26;20046;-87
2020/12/28 20:47:40;;;;;;;7.20;3.08;;;;;;;9.71;58.78;97509.78;5255301;26;20536;-87
2020/12/28 20:50:08;;;;;;;4.40;2.50;;;;;;;9.58;58.86;97519.16;5274881;26;20080;-86
2020/12/28 20:52:35;;;;;;;5.07;2.83;;;;;;;9.61;59.05;97508.53;5273455;27;20062;-87
2020/12/28 20:55:03;;;;;;;5.30;3.08;;;;;;;9.69;58.54;97516.87;5254350;27;20124;-85
2020/12/28 20:57:29;;;;;;;5.45;1.98;;;;;;;9.54;58.93;97522.84;5273771;27;20069;-87
2020/12/28 20:59:55;;;;;;;4.30;2.25;;;;;;;9.60;59.45;97508.59;5254811;26;20112;-86
2020/12/28 21:02:22;;;;;;;4.62;2.30;;;;;;;9.54;58.99;97491.41;5254714;27;20079;-87
2020/12/28 21:04:49;;;;;;;6.70;3.78;;;;;;;9.73;58.41;97507.06;5273733;27;20057;-87
2020/12/28 21:07:16;;;;;;;5.45;2.55;;;;;;;9.57;58.72;97496.50;5273726;27;20426;-87
2020/12/28 21:09:43;;;;;;;5.40;2.37;;;;;;;9.70;58.27;97505.44;5254969;26;20066;-86
2020/12/28 21:12:09;;;;;;;9.43;2.22;;;;;;;9.91;58.61;97484.34;5273939;27;20133;-86
2020/12/28 21:14:36;;;;;;;5.10;2.62;;;;;;;9.71;58.44;97491.44;5273394;27;20058;-86
2020/12/28 21:17:02;;;;;;;4.68;2.25;;;;;;;9.95;58.62;97493.78;5273488;27;20057;-86
2020/12/28 21:19:29;;;;;;;5.62;2.80;;;;;;;9.95;58.53;97486.75;5273997;27;20093;-87
2020/12/28 21:21:55;;;;;;;7.55;2.70;;;;;;;9.93;58.84;97478.09;5255172;27;20128;-86
2020/12/28 21:24:24;;;;;;;5.12;2.87;;;;;;;10.29;57.92;97473.72;5256758;27;20053;-86
2020/12/28 21:26:52;;;;;;;5.45;3.15;;;;;;;10.06;58.22;97461.75;5257671;26;20050;-86
2020/12/28 21:29:19;;;;;;;5.80;3.10;;;;;;;9.82;59.61;97463.81;5277729;26;20199;-86
2020/12/28 21:31:52;;;;;;;6.55;3.58;;;;;;;9.43;60.82;97472.72;5276420;27;20066;-87
2020/12/28 21:34:22;;;;;;;6.25;3.70;;;;;;;9.73;59.89;97467.75;5275919;27;20054;-86
2020/12/28 21:36:53;;;;;;;8.15;4.05;;;;;;;9.13;61.85;97464.53;5257330;27;20026;-87
2020/12/28 21:39:20;;;;;;;7.57;4.00;;;;;;;9.64;60.52;97450.69;5258074;27;20065;-87
2020/12/28 21:41:48;;;;;;;6.75;4.07;;;;;;;9.48;60.84;97460.25;5277661;27;20112;-86
2020/12/28 21:44:14;;;;;;;5.90;3.92;;;;;;;9.66;60.19;97467.22;5258698;26;20072;-87
2020/12/28 21:46:41;;;;;;;8.05;4.43;;;;;;;9.15;61.69;97452.19;5277666;26;20046;-86
2020/12/28 21:49:08;;;;;;;5.72;2.87;;;;;;;9.78;60.37;97463.97;5276617;27;20061;-88
2020/12/28 21:51:34;;;;;;;9.23;3.22;;;;;;;9.53;60.16;97466.97;5257364;26;20070;-86
2020/12/28 21:54:00;;;;;;;7.05;3.75;;;;;;;9.33;60.77;97474.94;5275600;27;20878;-86
2020/12/28 21:56:27;;;;;;;4.82;3.50;;;;;;;9.29;61.24;97469.00;5256294;27;20077;-87
2020/12/28 21:58:54;;;;;;;5.53;2.97;;;;;;;9.23;61.71;97479.72;5256919;26;20062;-86
2020/12/28 22:01:21;;;;;;;5.90;2.92;;;;;;;9.13;61.34;97454.06;5255674;27;20080;-87
2020/12/28 22:03:48;;;;;;;5.20;2.83;;;;;;;9.39;60.65;97466.78;5274982;27;20054;-86
2020/12/28 22:06:22;;;;;;;5.07;2.90;;;;;;;9.52;60.25;97452.12;5256701;27;20104;-87
2020/12/28 22:08:51;;;;;;;5.78;2.92;;;;;;;9.95;59.85;97450.03;5276968;27;20057;-87